Time;durP1;ratioP1;P1;durP2;ratioP2;P2;SDS_P1;SDS_P2;PMS_P1;PMS_P2;Temp;Humidity;BMP_temperature;BMP_pressure;BME280_temperature;BME280_humidity;BME280_pressure;Samples;Min_cycle;Max_cycle;Signal;HPM_P1;HPM_P2
2024/01/11 00:01:48;;;;;;;32.83;19.00;;;;;;;-142.06;100.00;64312.41;5059469;28;20186;-81
2024/01/11 00:04:15;;;;;;;31.00;18.10;;;;;;;-142.06;100.00;64312.41;5058733;28;20197;-79
2024/01/11 00:06:43;;;;;;;34.97;20.27;;;;;;;-142.06;100.00;64312.41;5057282;28;20216;-80
2024/01/11 00:09:11;;;;;;;37.83;22.60;;;;;;;-142.06;100.00;64312.41;5028357;28;20194;-80
2024/01/11 00:11:38;;;;;;;34.50;22.70;;;;;;;-142.06;100.00;64312.41;5057246;28;20209;-80
2024/01/11 00:14:07;;;;;;;32.60;21.93;;;;;;;-142.06;100.00;64312.41;5056368;28;20193;-79
2024/01/11 00:16:34;;;;;;;31.97;21.27;;;;;;;-142.06;100.00;64312.41;5047444;28;20673;-80
2024/01/11 00:19:02;;;;;;;36.17;21.50;;;;;;;-142.06;100.00;64312.41;5050252;28;20252;-80
2024/01/11 00:21:29;;;;;;;30.63;21.33;;;;;;;-142.06;100.00;64312.41;5048866;28;20213;-80
2024/01/11 00:23:56;;;;;;;29.37;19.90;;;;;;;-142.06;100.00;64312.41;5038518;28;20228;-80
2024/01/11 00:26:22;;;;;;;33.03;19.93;;;;;;;-142.06;100.00;64312.41;5034783;28;20275;-79
2024/01/11 00:28:49;;;;;;;31.60;19.40;;;;;;;-142.06;100.00;64312.41;5039864;28;20197;-79
2024/01/11 00:31:16;;;;;;;29.57;18.33;;;;;;;-142.06;100.00;64312.41;5027936;28;20296;-80
2024/01/11 00:33:43;;;;;;;28.63;18.00;;;;;;;-142.06;100.00;64312.41;5036395;28;20602;-79
2024/01/11 00:36:10;;;;;;;29.90;18.00;;;;;;;-142.06;100.00;64312.41;5040538;28;20717;-80
2024/01/11 00:38:37;;;;;;;28.20;17.43;;;;;;;-142.06;100.00;64312.41;5047347;28;20271;-79
2024/01/11 00:41:06;;;;;;;27.57;17.00;;;;;;;-142.06;100.00;64312.41;5043552;28;20208;-80
2024/01/11 00:43:32;;;;;;;28.43;16.97;;;;;;;-142.06;100.00;64312.41;5051496;28;20193;-79
2024/01/11 00:45:59;;;;;;;30.37;17.27;;;;;;;-142.06;100.00;64312.41;5038228;28;20213;-80
2024/01/11 00:48:26;;;;;;;28.87;17.63;;;;;;;-142.06;100.00;64312.41;5039284;28;20249;-81
2024/01/11 00:50:54;;;;;;;28.90;18.37;;;;;;;-142.06;100.00;64312.41;5037938;28;20197;-80
2024/01/11 00:53:21;;;;;;;26.50;16.67;;;;;;;-142.06;100.00;64312.41;5053885;28;20267;-80
2024/01/11 00:55:49;;;;;;;27.77;16.73;;;;;;;-142.06;100.00;64312.41;5037480;28;20224;-81
2024/01/11 00:58:16;;;;;;;28.97;17.93;;;;;;;-142.06;100.00;64312.41;5059290;28;20193;-80
2024/01/11 01:00:43;;;;;;;28.07;17.00;;;;;;;-142.06;100.00;64312.41;5044787;28;20204;-79
2024/01/11 01:03:10;;;;;;;28.37;17.07;;;;;;;-142.06;100.00;64312.41;5044394;28;20194;-78
2024/01/11 01:05:37;;;;;;;28.77;17.80;;;;;;;-142.06;100.00;64312.41;5038551;28;20199;-79
2024/01/11 01:08:04;;;;;;;29.10;16.40;;;;;;;-142.06;100.00;64312.41;5042220;28;20193;-79
2024/01/11 01:10:31;;;;;;;27.53;17.30;;;;;;;-142.06;100.00;64312.41;5053190;28;20189;-79
2024/01/11 01:12:58;;;;;;;26.37;16.53;;;;;;;-142.06;100.00;64312.41;5049447;28;20186;-79
2024/01/11 01:15:24;;;;;;;31.77;17.60;;;;;;;-142.06;100.00;64312.41;5053219;28;20237;-79
2024/01/11 01:17:52;;;;;;;29.13;17.23;;;;;;;-142.06;100.00;64312.41;5051930;28;20197;-78
2024/01/11 01:20:19;;;;;;;30.83;17.40;;;;;;;-142.06;100.00;64312.41;5050703;28;20284;-79
2024/01/11 01:22:46;;;;;;;28.77;17.53;;;;;;;-142.06;100.00;64312.41;5052161;28;20200;-79
2024/01/11 01:25:13;;;;;;;30.30;17.33;;;;;;;-142.06;100.00;64312.41;5050616;28;20200;-78
2024/01/11 01:27:40;;;;;;;27.20;17.17;;;;;;;-142.06;100.00;64312.41;5052098;28;20194;-80
2024/01/11 01:30:07;;;;;;;27.37;16.53;;;;;;;-142.06;100.00;64312.41;5052829;28;20726;-79
2024/01/11 01:32:35;;;;;;;27.97;17.57;;;;;;;-142.06;100.00;64312.41;5044545;28;20196;-77
2024/01/11 01:35:02;;;;;;;31.10;17.67;;;;;;;-142.06;100.00;64312.41;5051681;28;20241;-79
2024/01/11 01:37:29;;;;;;;28.93;16.83;;;;;;;-142.06;100.00;64312.41;5050783;28;20209;-79
2024/01/11 01:39:56;;;;;;;28.93;17.90;;;;;;;-142.06;100.00;64312.41;5056933;28;20282;-79
2024/01/11 01:42:22;;;;;;;29.03;17.70;;;;;;;-142.06;100.00;64312.41;5054486;28;20272;-78
2024/01/11 01:44:49;;;;;;;32.07;18.13;;;;;;;-142.06;100.00;64312.41;5051287;28;20225;-79
2024/01/11 01:47:17;;;;;;;29.90;17.33;;;;;;;-142.06;100.00;64312.41;5061710;28;20237;-78
2024/01/11 01:49:44;;;;;;;29.87;17.27;;;;;;;-142.06;100.00;64312.41;5051443;28;20190;-77
2024/01/11 01:52:14;;;;;;;30.50;17.37;;;;;;;-142.06;100.00;64312.41;5054652;28;20271;-78
2024/01/11 01:54:40;;;;;;;28.27;16.90;;;;;;;-142.06;100.00;64312.41;5052071;28;20570;-78
2024/01/11 01:57:09;;;;;;;29.03;17.73;;;;;;;-142.06;100.00;64312.41;5049855;28;20194;-78
2024/01/11 01:59:37;;;;;;;28.43;17.37;;;;;;;-142.06;100.00;64312.41;5049341;28;20221;-78
2024/01/11 02:02:05;;;;;;;30.67;17.50;;;;;;;-142.06;100.00;64312.41;5057402;28;20244;-79
2024/01/11 02:04:32;;;;;;;28.87;17.50;;;;;;;-142.06;100.00;64312.41;5051533;28;20300;-78
2024/01/11 02:06:59;;;;;;;30.50;16.90;;;;;;;-142.06;100.00;64312.41;5042494;28;20198;-79
2024/01/11 02:09:26;;;;;;;27.17;17.60;;;;;;;-142.06;100.00;64312.41;5050985;28;20236;-78
2024/01/11 02:11:53;;;;;;;29.20;16.43;;;;;;;-142.06;100.00;64312.41;5053223;28;20273;-79
2024/01/11 02:14:20;;;;;;;29.03;16.97;;;;;;;-142.06;100.00;64312.41;5055237;28;20208;-78
2024/01/11 02:16:47;;;;;;;28.60;17.37;;;;;;;-142.06;100.00;64312.41;5052529;28;20212;-79
2024/01/11 02:19:14;;;;;;;26.50;16.27;;;;;;;-142.06;100.00;64312.41;5055111;28;20272;-79
2024/01/11 02:21:44;;;;;;;25.43;16.70;;;;;;;-142.06;100.00;64312.41;5053869;28;20206;-79
2024/01/11 02:24:10;;;;;;;28.20;17.10;;;;;;;-142.06;100.00;64312.41;5050849;28;20205;-79
2024/01/11 02:26:58;;;;;;;28.93;17.40;;;;;;;-142.06;100.00;64312.41;5053968;28;20267;-79
2024/01/11 02:29:26;;;;;;;31.30;17.17;;;;;;;-142.06;100.00;64312.41;5035528;28;20736;-78
2024/01/11 02:31:56;;;;;;;28.53;17.10;;;;;;;-142.06;100.00;64312.41;5058996;28;20665;-78
2024/01/11 02:34:24;;;;;;;25.53;16.43;;;;;;;-142.06;100.00;64312.41;5055997;28;20204;-79
2024/01/11 02:36:51;;;;;;;29.03;16.47;;;;;;;-142.06;100.00;64312.41;5056376;28;20220;-78
2024/01/11 02:39:19;;;;;;;30.13;17.57;;;;;;;-142.06;100.00;64312.41;5050904;28;20254;-78
2024/01/11 02:41:47;;;;;;;30.90;16.77;;;;;;;-142.06;100.00;64312.41;5057168;28;20198;-78
2024/01/11 02:44:14;;;;;;;28.77;16.40;;;;;;;-142.06;100.00;64312.41;5054221;28;20197;-79
2024/01/11 02:46:41;;;;;;;28.10;17.00;;;;;;;-142.06;100.00;64312.41;5055882;28;20243;-78
2024/01/11 02:49:09;;;;;;;28.37;16.77;;;;;;;-142.06;100.00;64312.41;5052740;28;20217;-79
2024/01/11 02:51:36;;;;;;;25.10;15.63;;;;;;;-142.06;100.00;64312.41;5052870;28;20204;-77
2024/01/11 02:54:04;;;;;;;27.53;15.73;;;;;;;-142.06;100.00;64312.41;5054080;28;20251;-77
2024/01/11 02:56:31;;;;;;;28.03;16.33;;;;;;;-142.06;100.00;64312.41;5057984;28;20303;-77
2024/01/11 02:58:58;;;;;;;29.90;17.13;;;;;;;-142.06;100.00;64312.41;5051545;28;20200;-77
2024/01/11 03:01:25;;;;;;;28.27;16.77;;;;;;;-142.06;100.00;64312.41;5055504;28;20262;-77
2024/01/11 03:03:51;;;;;;;23.67;15.83;;;;;;;-142.06;100.00;64312.41;5056917;28;20255;-78
2024/01/11 03:06:21;;;;;;;29.93;17.27;;;;;;;-142.06;100.00;64312.41;5032091;28;20202;-76
2024/01/11 03:08:49;;;;;;;29.67;17.47;;;;;;;-142.06;100.00;64312.41;5053285;28;20205;-78
2024/01/11 03:11:16;;;;;;;26.53;16.50;;;;;;;-142.06;100.00;64312.41;5052936;28;20307;-78
2024/01/11 03:13:43;;;;;;;27.97;16.17;;;;;;;-142.06;100.00;64312.41;5039276;28;20591;-78
2024/01/11 03:16:10;;;;;;;29.93;17.70;;;;;;;-142.06;100.00;64312.41;5050757;28;20219;-77
2024/01/11 03:18:37;;;;;;;29.33;17.17;;;;;;;-142.06;100.00;64312.41;5054003;28;20198;-77
2024/01/11 03:21:04;;;;;;;27.13;17.20;;;;;;;-142.06;100.00;64312.41;5050777;28;20607;-77
2024/01/11 03:23:31;;;;;;;30.00;16.30;;;;;;;-142.06;100.00;64312.41;5053795;28;20236;-78
2024/01/11 03:25:58;;;;;;;28.87;15.87;;;;;;;-142.06;100.00;64312.41;5052862;28;20197;-79
2024/01/11 03:28:25;;;;;;;27.30;15.80;;;;;;;-142.06;100.00;64312.41;5055636;28;20307;-78
2024/01/11 03:30:52;;;;;;;27.63;16.43;;;;;;;-142.06;100.00;64312.41;5045890;28;20186;-78
2024/01/11 03:33:19;;;;;;;28.07;16.30;;;;;;;-142.06;100.00;64312.41;5050950;28;20194;-79
2024/01/11 03:35:46;;;;;;;27.83;16.27;;;;;;;-142.06;100.00;64312.41;5060420;28;20213;-79
2024/01/11 03:38:13;;;;;;;25.20;15.20;;;;;;;-142.06;100.00;64312.41;5059425;28;20208;-77
2024/01/11 03:40:40;;;;;;;29.43;15.60;;;;;;;-142.06;100.00;64312.41;5053501;28;20213;-78
2024/01/11 03:43:07;;;;;;;29.93;15.87;;;;;;;-142.06;100.00;64312.41;5060371;28;20193;-77
2024/01/11 03:45:33;;;;;;;24.47;15.23;;;;;;;-142.06;100.00;64312.41;5050875;28;20726;-79
2024/01/11 03:48:00;;;;;;;25.73;16.47;;;;;;;-142.06;100.00;64312.41;5057713;28;20233;-79
2024/01/11 03:50:27;;;;;;;27.70;16.37;;;;;;;-142.06;100.00;64312.41;5053254;28;20255;-77
2024/01/11 03:52:54;;;;;;;28.27;15.90;;;;;;;-142.06;100.00;64312.41;5052465;28;20202;-78
2024/01/11 03:55:21;;;;;;;23.40;15.70;;;;;;;-142.06;100.00;64312.41;5052641;28;20267;-79
2024/01/11 03:57:47;;;;;;;29.20;16.53;;;;;;;-142.06;100.00;64312.41;5046494;28;20193;-79
2024/01/11 04:00:14;;;;;;;27.17;17.40;;;;;;;-142.06;100.00;64312.41;5052716;28;20193;-77
2024/01/11 04:02:41;;;;;;;29.63;18.00;;;;;;;-142.06;100.00;64312.41;5060091;28;20566;-78
2024/01/11 04:05:08;;;;;;;25.77;16.83;;;;;;;-142.06;100.00;64312.41;5052828;28;20193;-77
2024/01/11 04:07:35;;;;;;;27.77;16.23;;;;;;;-142.06;100.00;64312.41;5052976;28;20200;-78
2024/01/11 04:10:02;;;;;;;24.20;14.33;;;;;;;-142.06;100.00;64312.41;5047263;28;20194;-79
2024/01/11 04:12:28;;;;;;;28.70;15.93;;;;;;;-142.06;100.00;64312.41;5029599;28;20193;-78
2024/01/11 04:14:56;;;;;;;27.93;14.10;;;;;;;-142.06;100.00;64312.41;5021019;28;20190;-78
2024/01/11 04:17:23;;;;;;;25.10;14.97;;;;;;;-142.06;100.00;64312.41;5043045;28;20217;-78
2024/01/11 04:19:50;;;;;;;22.63;14.07;;;;;;;-142.06;100.00;64312.41;5045983;28;20217;-78
2024/01/11 04:22:16;;;;;;;23.23;13.77;;;;;;;-142.06;100.00;64312.41;5052701;28;20263;-78
2024/01/11 04:24:43;;;;;;;24.03;14.33;;;;;;;-142.06;100.00;64312.41;5046069;28;20654;-77
2024/01/11 04:27:10;;;;;;;21.53;13.00;;;;;;;-142.06;100.00;64312.41;5052294;28;20228;-78
2024/01/11 04:29:37;;;;;;;23.23;14.20;;;;;;;-142.06;100.00;64312.41;5053859;28;20221;-78
2024/01/11 04:32:04;;;;;;;24.77;14.83;;;;;;;-142.06;100.00;64312.41;5052339;28;20221;-79
2024/01/11 04:34:31;;;;;;;26.47;14.37;;;;;;;-142.06;100.00;64312.41;5051538;28;20193;-77
2024/01/11 04:36:58;;;;;;;25.13;14.33;;;;;;;-142.06;100.00;64312.41;5050682;28;20202;-79
2024/01/11 04:39:25;;;;;;;22.67;14.10;;;;;;;-142.06;100.00;64312.41;5051040;28;20241;-79
2024/01/11 04:41:51;;;;;;;25.53;14.17;;;;;;;-142.06;100.00;64312.41;5051189;28;20194;-77
2024/01/11 04:44:18;;;;;;;23.30;14.07;;;;;;;-142.06;100.00;64312.41;5052783;28;20193;-79
2024/01/11 04:46:45;;;;;;;22.67;13.80;;;;;;;-142.06;100.00;64312.41;5053828;28;20204;-77
2024/01/11 04:49:11;;;;;;;21.83;12.83;;;;;;;-142.06;100.00;64312.41;5050886;28;20666;-78
2024/01/11 04:51:38;;;;;;;22.60;13.63;;;;;;;-142.06;100.00;64312.41;5035956;28;20197;-78
2024/01/11 04:54:05;;;;;;;21.90;14.53;;;;;;;-142.06;100.00;64312.41;5050712;28;20300;-78
2024/01/11 04:56:32;;;;;;;25.33;15.30;;;;;;;-142.06;100.00;64312.41;5031195;28;20228;-77
2024/01/11 04:58:59;;;;;;;23.17;15.07;;;;;;;-142.06;100.00;64312.41;5053567;28;20197;-78
2024/01/11 05:01:25;;;;;;;27.77;14.93;;;;;;;-142.06;100.00;64312.41;5048783;28;20231;-77
2024/01/11 05:03:52;;;;;;;23.73;14.17;;;;;;;-142.06;100.00;64312.41;5050693;28;20205;-78
2024/01/11 05:06:21;;;;;;;22.60;13.93;;;;;;;-142.06;100.00;64312.41;5050557;28;20236;-79
2024/01/11 05:08:52;;;;;;;22.87;14.17;;;;;;;-142.06;100.00;64312.41;5046535;28;20189;-78
2024/01/11 05:11:20;;;;;;;22.70;14.10;;;;;;;-142.06;100.00;64312.41;5052079;28;20196;-79
2024/01/11 05:13:48;;;;;;;25.37;14.07;;;;;;;-142.06;100.00;64312.41;5052821;28;20201;-76
2024/01/11 05:16:25;;;;;;;27.20;13.70;;;;;;;-142.06;100.00;64312.41;5053129;28;20213;-77
2024/01/11 05:18:53;;;;;;;24.17;14.13;;;;;;;-142.06;100.00;64312.41;5051771;28;20227;-76
2024/01/11 05:21:21;;;;;;;22.30;13.60;;;;;;;-142.06;100.00;64312.41;5050593;28;20182;-78
2024/01/11 05:23:48;;;;;;;23.83;14.43;;;;;;;-142.06;100.00;64312.41;5051414;28;20251;-77
2024/01/11 05:26:16;;;;;;;21.87;13.47;;;;;;;-142.06;100.00;64312.41;5053033;28;20280;-77
2024/01/11 05:28:43;;;;;;;22.33;13.37;;;;;;;-142.06;100.00;64312.41;5050457;28;20682;-77
2024/01/11 05:31:10;;;;;;;27.47;13.70;;;;;;;-142.06;100.00;64312.41;5051502;28;20208;-77
2024/01/11 05:33:38;;;;;;;29.83;14.27;;;;;;;-142.06;100.00;64312.41;5053001;28;20672;-78
2024/01/11 05:36:06;;;;;;;24.07;14.30;;;;;;;-142.06;100.00;64312.41;5051707;28;20218;-78
2024/01/11 05:38:33;;;;;;;26.20;13.90;;;;;;;-142.06;100.00;64312.41;5052763;28;20268;-77
2024/01/11 05:41:00;;;;;;;22.97;13.87;;;;;;;-142.06;100.00;64312.41;5034242;28;20217;-77
2024/01/11 05:43:27;;;;;;;25.70;14.00;;;;;;;-142.06;100.00;64312.41;5033937;28;20201;-77
2024/01/11 05:45:54;;;;;;;22.77;13.27;;;;;;;-142.06;100.00;64312.41;5052773;28;20655;-77
2024/01/11 05:48:20;;;;;;;22.90;13.17;;;;;;;-142.06;100.00;64312.41;5057105;28;20230;-77
2024/01/11 05:50:47;;;;;;;24.57;13.60;;;;;;;-142.06;100.00;64312.41;5055676;28;20217;-78
2024/01/11 05:53:14;;;;;;;26.97;13.30;;;;;;;-142.06;100.00;64312.41;5055368;28;20674;-77
2024/01/11 05:55:41;;;;;;;22.77;13.77;;;;;;;-142.06;100.00;64312.41;5053784;28;20667;-77
2024/01/11 05:58:07;;;;;;;22.43;13.10;;;;;;;-142.06;100.00;64312.41;5053467;28;20666;-79
2024/01/11 06:00:34;;;;;;;24.50;13.63;;;;;;;-142.06;100.00;64312.41;5055021;28;20247;-78
2024/01/11 06:03:01;;;;;;;21.93;13.77;;;;;;;-142.06;100.00;64312.41;5054771;28;20178;-78
2024/01/11 06:05:28;;;;;;;22.20;12.93;;;;;;;-142.06;100.00;64312.41;5054833;28;20235;-76
2024/01/11 06:07:55;;;;;;;22.87;13.80;;;;;;;-142.06;100.00;64312.41;5055134;28;20251;-77
2024/01/11 06:10:22;;;;;;;21.53;13.10;;;;;;;-142.06;100.00;64312.41;5062610;28;20232;-78
2024/01/11 06:12:48;;;;;;;23.87;12.70;;;;;;;-142.06;100.00;64312.41;5055271;28;20193;-79
2024/01/11 06:15:15;;;;;;;23.33;13.17;;;;;;;-142.06;100.00;64312.41;5054381;28;20208;-79
2024/01/11 06:17:42;;;;;;;26.07;14.00;;;;;;;-142.06;100.00;64312.41;5053136;28;20225;-79
2024/01/11 06:20:10;;;;;;;22.60;13.00;;;;;;;-142.06;100.00;64312.41;5053120;28;20189;-77
2024/01/11 06:22:37;;;;;;;21.77;13.30;;;;;;;-142.06;100.00;64312.41;5054653;28;20229;-77
2024/01/11 06:25:04;;;;;;;22.23;13.77;;;;;;;-142.06;100.00;64312.41;5054806;28;20201;-78
2024/01/11 06:27:31;;;;;;;22.97;13.97;;;;;;;-142.06;100.00;64312.41;5044650;28;20195;-77
2024/01/11 06:29:58;;;;;;;26.33;13.80;;;;;;;-142.06;100.00;64312.41;5053099;28;20198;-77
2024/01/11 06:32:25;;;;;;;27.13;16.30;;;;;;;-142.06;100.00;64312.41;5045005;28;20197;-79
2024/01/11 06:34:52;;;;;;;26.60;16.97;;;;;;;-142.06;100.00;64312.41;5047205;28;20209;-77
2024/01/11 06:37:19;;;;;;;26.17;16.70;;;;;;;-142.06;100.00;64312.41;5047078;28;20475;-79
2024/01/11 06:39:45;;;;;;;26.77;14.83;;;;;;;-142.06;100.00;64312.41;5054197;28;20214;-77
2024/01/11 06:42:12;;;;;;;21.00;13.90;;;;;;;-142.06;100.00;64312.41;5054367;28;20189;-78
2024/01/11 06:44:39;;;;;;;28.27;13.87;;;;;;;-142.06;100.00;64312.41;5032914;28;20206;-78
2024/01/11 06:47:05;;;;;;;23.33;14.43;;;;;;;-142.06;100.00;64312.41;5036186;28;20233;-79
2024/01/11 06:49:33;;;;;;;26.00;14.87;;;;;;;-142.06;100.00;64312.41;5050335;28;20226;-78
2024/01/11 06:52:00;;;;;;;27.83;17.60;;;;;;;-142.06;100.00;64312.41;5054353;28;20197;-79
2024/01/11 06:54:27;;;;;;;24.67;15.77;;;;;;;-142.06;100.00;64312.41;5055040;28;20244;-78
2024/01/11 06:56:54;;;;;;;22.33;13.53;;;;;;;-142.06;100.00;64312.41;5055191;28;20223;-76
2024/01/11 06:59:20;;;;;;;24.03;13.13;;;;;;;-142.06;100.00;64312.41;5055238;28;20251;-77
2024/01/11 07:01:50;;;;;;;23.53;13.63;;;;;;;-142.06;100.00;64312.41;5055133;28;20193;-78
2024/01/11 07:04:16;;;;;;;23.40;13.70;;;;;;;-142.06;100.00;64312.41;5053576;28;20221;-77
2024/01/11 07:06:44;;;;;;;25.77;14.53;;;;;;;-142.06;100.00;64312.41;5055172;28;20201;-77
2024/01/11 07:09:10;;;;;;;25.63;15.07;;;;;;;-142.06;100.00;64312.41;5053615;28;20198;-78
2024/01/11 07:11:37;;;;;;;27.13;16.43;;;;;;;-142.06;100.00;64312.41;5055198;28;20193;-79
2024/01/11 07:14:04;;;;;;;30.10;17.47;;;;;;;-142.06;100.00;64312.41;5048625;28;20204;-77
2024/01/11 07:16:31;;;;;;;28.27;18.17;;;;;;;-142.06;100.00;64312.41;5056939;28;20213;-78
2024/01/11 07:18:57;;;;;;;25.77;16.83;;;;;;;-142.06;100.00;64312.41;5040345;28;20197;-78
2024/01/11 07:21:31;;;;;;;28.73;16.17;;;;;;;-142.06;100.00;64312.41;5053420;28;20197;-80
2024/01/11 07:23:58;;;;;;;25.07;15.77;;;;;;;-142.06;100.00;64312.41;5050938;28;20228;-79
2024/01/11 07:26:25;;;;;;;27.67;16.10;;;;;;;-142.06;100.00;64312.41;5049811;28;20260;-79
2024/01/11 07:28:54;;;;;;;27.93;16.80;;;;;;;-142.06;100.00;64312.41;5047801;28;20205;-78
2024/01/11 07:31:21;;;;;;;27.17;16.53;;;;;;;-142.06;100.00;64312.41;5048065;28;20244;-77
2024/01/11 07:33:48;;;;;;;25.13;15.40;;;;;;;-142.06;100.00;64312.41;5052085;28;20190;-79
2024/01/11 07:36:16;;;;;;;29.90;16.83;;;;;;;-142.06;100.00;64312.41;5051551;28;20277;-78
2024/01/11 07:38:42;;;;;;;30.83;16.90;;;;;;;-142.06;100.00;64312.41;5053943;28;20194;-79
2024/01/11 07:41:09;;;;;;;27.37;16.63;;;;;;;-142.06;100.00;64312.41;5053506;28;20214;-78
2024/01/11 07:43:36;;;;;;;27.37;15.93;;;;;;;-142.06;100.00;64312.41;5047569;28;20193;-78
2024/01/11 07:46:19;;;;;;;28.57;16.47;;;;;;;-142.06;100.00;64312.41;5060235;28;20195;-78
2024/01/11 07:48:48;;;;;;;28.23;16.70;;;;;;;-142.06;100.00;64312.41;5058896;28;20241;-79
2024/01/11 07:51:15;;;;;;;29.47;16.90;;;;;;;-142.06;100.00;64312.41;5051111;28;20248;-79
2024/01/11 07:53:42;;;;;;;30.13;17.57;;;;;;;-142.06;100.00;64312.41;5046933;28;20670;-78
2024/01/11 07:56:09;;;;;;;31.20;17.53;;;;;;;-142.06;100.00;64312.41;5064537;28;20224;-80
2024/01/11 07:58:37;;;;;;;30.97;18.00;;;;;;;-142.06;100.00;64312.41;5061049;28;20218;-80
2024/01/11 08:01:04;;;;;;;30.00;17.50;;;;;;;-142.06;100.00;64312.41;5047401;28;20251;-78
2024/01/11 08:03:31;;;;;;;29.93;17.70;;;;;;;-142.06;100.00;64312.41;5054763;28;20197;-78
2024/01/11 08:05:58;;;;;;;29.43;18.10;;;;;;;-142.06;100.00;64312.41;5054992;28;20194;-80
2024/01/11 08:08:25;;;;;;;36.17;18.70;;;;;;;-142.06;100.00;64312.41;5053378;28;20247;-80
2024/01/11 08:10:51;;;;;;;29.83;18.10;;;;;;;-142.06;100.00;64312.41;5053672;28;20193;-79
2024/01/11 08:13:21;;;;;;;34.37;20.37;;;;;;;-142.06;100.00;64312.41;5037797;28;20194;-79
2024/01/11 08:15:47;;;;;;;31.60;19.63;;;;;;;-142.06;100.00;64312.41;5059877;28;20201;-79
2024/01/11 08:18:15;;;;;;;36.40;21.27;;;;;;;-142.06;100.00;64312.41;5054664;28;20221;-80
2024/01/11 08:20:41;;;;;;;38.00;20.57;;;;;;;-142.06;100.00;64312.41;5054361;28;20194;-79
2024/01/11 08:23:08;;;;;;;38.63;22.30;;;;;;;-142.06;100.00;64312.41;5055197;28;20204;-78
2024/01/11 08:25:35;;;;;;;36.63;21.07;;;;;;;-142.06;100.00;64312.41;5054163;28;20190;-77
2024/01/11 08:28:02;;;;;;;37.97;21.40;;;;;;;-142.06;100.00;64312.41;5057578;28;20193;-78
2024/01/11 08:30:29;;;;;;;32.43;21.00;;;;;;;-142.06;100.00;64312.41;5051090;28;20700;-79
2024/01/11 08:32:56;;;;;;;32.00;21.37;;;;;;;-142.06;100.00;64312.41;5035533;28;20194;-78
2024/01/11 08:35:23;;;;;;;33.73;20.93;;;;;;;-142.06;100.00;64312.41;5051605;28;20190;-79
2024/01/11 08:37:50;;;;;;;34.83;21.87;;;;;;;-142.06;100.00;64312.41;5052429;28;20711;-78
2024/01/11 08:40:16;;;;;;;34.10;21.77;;;;;;;-142.06;100.00;64312.41;5052818;28;20247;-79
2024/01/11 08:42:44;;;;;;;33.80;21.97;;;;;;;-142.06;100.00;64312.41;5052965;28;20193;-79
2024/01/11 08:45:17;;;;;;;35.87;22.77;;;;;;;-142.06;100.00;64312.41;5051038;28;20605;-78
2024/01/11 08:47:45;;;;;;;34.70;22.63;;;;;;;-142.06;100.00;64312.41;5058570;28;20236;-79
2024/01/11 08:50:15;;;;;;;36.73;22.97;;;;;;;-142.06;100.00;64312.41;5048030;28;20649;-80
2024/01/11 08:52:46;;;;;;;34.80;22.73;;;;;;;-142.06;100.00;64312.41;5050348;28;20189;-79
2024/01/11 08:55:13;;;;;;;37.37;22.77;;;;;;;-142.06;100.00;64312.41;5050453;28;20280;-80
2024/01/11 08:57:40;;;;;;;35.87;22.67;;;;;;;-142.06;100.00;64312.41;5051025;28;20241;-81
2024/01/11 09:00:07;;;;;;;35.67;23.37;;;;;;;-142.06;100.00;64312.41;5050562;28;20229;-80
2024/01/11 09:02:35;;;;;;;37.83;23.47;;;;;;;-142.06;100.00;64312.41;5063336;28;20360;-79
2024/01/11 09:05:04;;;;;;;35.87;22.33;;;;;;;-142.06;100.00;64312.41;5051965;28;20282;-79
2024/01/11 09:07:34;;;;;;;38.40;23.63;;;;;;;-142.06;100.00;64312.41;5050931;28;20201;-78
2024/01/11 09:10:01;;;;;;;38.27;24.33;;;;;;;-142.06;100.00;64312.41;5033858;28;20654;-79
2024/01/11 09:12:28;;;;;;;40.20;24.23;;;;;;;-142.06;100.00;64312.41;5034054;28;20198;-79
2024/01/11 09:14:54;;;;;;;39.47;24.87;;;;;;;-142.06;100.00;64312.41;5050724;28;20228;-81
2024/01/11 09:17:21;;;;;;;38.97;25.20;;;;;;;-142.06;100.00;64312.41;5050632;28;20209;-79
2024/01/11 09:19:48;;;;;;;39.83;23.57;;;;;;;-142.06;100.00;64312.41;5054107;28;20654;-80
2024/01/11 09:22:15;;;;;;;39.37;24.20;;;;;;;-142.06;100.00;64312.41;5058332;28;20193;-79
2024/01/11 09:24:42;;;;;;;41.90;25.50;;;;;;;-142.06;100.00;64312.41;5065881;28;20208;-80
2024/01/11 09:27:09;;;;;;;36.87;24.50;;;;;;;-142.06;100.00;64312.41;5058447;28;20200;-79
2024/01/11 09:29:36;;;;;;;38.80;24.77;;;;;;;-142.06;100.00;64312.41;5058246;28;20273;-78
2024/01/11 09:32:03;;;;;;;38.37;25.20;;;;;;;-142.06;100.00;64312.41;5057162;28;20203;-79
2024/01/11 09:34:30;;;;;;;36.53;23.73;;;;;;;-142.06;100.00;64312.41;5038483;28;20208;-81
2024/01/11 09:36:58;;;;;;;35.10;22.97;;;;;;;-142.06;100.00;64312.41;5054681;28;20205;-80
2024/01/11 09:39:26;;;;;;;37.33;23.13;;;;;;;-142.06;100.00;64312.41;5058008;28;20224;-82
2024/01/11 09:41:59;;;;;;;34.37;23.13;;;;;;;-142.06;100.00;64312.41;5055244;28;20274;-81
2024/01/11 09:44:26;;;;;;;34.60;22.63;;;;;;;-142.06;100.00;64312.41;5058053;28;20212;-84
2024/01/11 09:46:53;;;;;;;33.27;23.20;;;;;;;-142.06;100.00;64312.41;5057367;28;20198;-81
2024/01/11 09:49:22;;;;;;;35.33;23.47;;;;;;;-142.06;100.00;64312.41;5057096;28;20204;-81
2024/01/11 09:51:49;;;;;;;33.23;22.10;;;;;;;-142.06;100.00;64312.41;5056550;28;20205;-80
2024/01/11 09:54:20;;;;;;;33.27;22.73;;;;;;;-142.06;100.00;64312.41;5057282;28;20193;-83
2024/01/11 09:56:49;;;;;;;31.70;21.13;;;;;;;-142.06;100.00;64312.41;5050490;28;20220;-81
2024/01/11 09:59:22;;;;;;;33.87;22.00;;;;;;;-142.06;100.00;64312.41;5035397;28;20197;-79
2024/01/11 10:01:49;;;;;;;33.23;21.83;;;;;;;-142.06;100.00;64312.41;5018325;28;20217;-82
2024/01/11 10:04:16;;;;;;;34.33;21.77;;;;;;;-142.06;100.00;64312.41;5056840;28;20685;-79
2024/01/11 10:06:43;;;;;;;31.27;21.67;;;;;;;-142.06;100.00;64312.41;5055100;28;20268;-81
2024/01/11 10:09:10;;;;;;;30.63;20.93;;;;;;;-142.06;100.00;64312.41;5051361;28;20189;-80
2024/01/11 10:11:37;;;;;;;31.33;21.07;;;;;;;-142.06;100.00;64312.41;5056361;28;20185;-82
2024/01/11 10:14:05;;;;;;;30.50;22.23;;;;;;;-142.06;100.00;64312.41;5051500;28;20201;-80
2024/01/11 10:16:32;;;;;;;35.27;22.17;;;;;;;-142.06;100.00;64312.41;5051176;28;20293;-78
2024/01/11 10:18:58;;;;;;;29.87;20.83;;;;;;;-142.06;100.00;64312.41;5053115;28;20232;-82
2024/01/11 10:21:26;;;;;;;31.57;21.47;;;;;;;-142.06;100.00;64312.41;5052296;28;20244;-81
2024/01/11 10:23:53;;;;;;;34.00;22.40;;;;;;;-142.06;100.00;64312.41;5041653;28;20213;-82
2024/01/11 10:26:21;;;;;;;35.37;23.43;;;;;;;-142.06;100.00;64312.41;5039901;28;20225;-78
2024/01/11 10:28:48;;;;;;;32.87;22.67;;;;;;;-142.06;100.00;64312.41;5056679;28;20654;-81
2024/01/11 10:31:15;;;;;;;32.07;22.00;;;;;;;-142.06;100.00;64312.41;5051167;28;20225;-82
2024/01/11 10:33:42;;;;;;;33.27;22.30;;;;;;;-142.06;100.00;64312.41;5036920;28;20308;-79
2024/01/11 10:36:11;;;;;;;30.90;20.33;;;;;;;-142.06;100.00;64312.41;5036114;28;20300;-82
2024/01/11 10:38:39;;;;;;;32.20;21.83;;;;;;;-142.06;100.00;64312.41;5053304;28;20218;-84
2024/01/11 10:41:07;;;;;;;32.17;20.43;;;;;;;-142.06;100.00;64312.41;5053424;28;20213;-82
2024/01/11 10:43:38;;;;;;;31.00;21.30;;;;;;;-142.06;100.00;64312.41;5053504;28;20297;-82
2024/01/11 10:46:07;;;;;;;31.60;21.57;;;;;;;-142.06;100.00;64312.41;5034025;28;20415;-78
2024/01/11 10:48:41;;;;;;;31.80;21.27;;;;;;;-142.06;100.00;64312.41;5053215;28;20240;-81
2024/01/11 10:51:10;;;;;;;32.30;20.43;;;;;;;-142.06;100.00;64312.41;5051775;28;20193;-84
2024/01/11 10:53:47;;;;;;;29.77;20.60;;;;;;;-142.06;100.00;64312.41;5042794;28;20201;-81
2024/01/11 10:56:17;;;;;;;27.83;18.83;;;;;;;-142.06;100.00;64312.41;5032843;28;20205;-84